sensor_id;sensor_type;location;lat;lon;timestamp;P1;durP1;ratioP1;P2;durP2;ratioP2
54947;SDS011;41113;41.882;12.530;2023-08-08T00:02:12;16.05;;;4.13;;
54947;SDS011;41113;41.882;12.530;2023-08-08T00:04:37;16.70;;;4.07;;
54947;SDS011;41113;41.882;12.530;2023-08-08T00:07:02;11.55;;;3.50;;
54947;SDS011;41113;41.882;12.530;2023-08-08T00:09:28;15.20;;;3.40;;
54947;SDS011;41113;41.882;12.530;2023-08-08T00:11:53;16.40;;;4.05;;
54947;SDS011;41113;41.882;12.530;2023-08-08T00:14:19;15.30;;;3.85;;
54947;SDS011;41113;41.882;12.530;2023-08-08T00:16:44;15.48;;;3.90;;
54947;SDS011;41113;41.882;12.530;2023-08-08T00:19:10;15.48;;;3.70;;
54947;SDS011;41113;41.882;12.530;2023-08-08T00:21:35;11.57;;;3.53;;
54947;SDS011;41113;41.882;12.530;2023-08-08T00:24:00;13.32;;;3.08;;
54947;SDS011;41113;41.882;12.530;2023-08-08T00:26:26;12.35;;;3.13;;
54947;SDS011;41113;41.882;12.530;2023-08-08T00:28:51;11.38;;;3.17;;
54947;SDS011;41113;41.882;12.530;2023-08-08T00:31:18;15.05;;;3.50;;
54947;SDS011;41113;41.882;12.530;2023-08-08T00:33:44;13.90;;;3.58;;
54947;SDS011;41113;41.882;12.530;2023-08-08T00:36:10;10.88;;;3.08;;
54947;SDS011;41113;41.882;12.530;2023-08-08T00:38:35;13.95;;;4.00;;
54947;SDS011;41113;41.882;12.530;2023-08-08T00:41:01;13.48;;;3.20;;
54947;SDS011;41113;41.882;12.530;2023-08-08T00:43:26;12.68;;;3.28;;
54947;SDS011;41113;41.882;12.530;2023-08-08T00:45:51;14.93;;;3.53;;
54947;SDS011;41113;41.882;12.530;2023-08-08T00:48:18;12.90;;;3.47;;
54947;SDS011;41113;41.882;12.530;2023-08-08T00:50:44;11.93;;;3.20;;
54947;SDS011;41113;41.882;12.530;2023-08-08T00:53:12;13.37;;;4.03;;
54947;SDS011;41113;41.882;12.530;2023-08-08T00:55:38;10.27;;;3.08;;
54947;SDS011;41113;41.882;12.530;2023-08-08T00:58:04;18.17;;;3.88;;
54947;SDS011;41113;41.882;12.530;2023-08-08T01:00:29;12.98;;;3.30;;
54947;SDS011;41113;41.882;12.530;2023-08-08T01:02:55;11.90;;;2.97;;
54947;SDS011;41113;41.882;12.530;2023-08-08T01:05:20;12.43;;;3.38;;
54947;SDS011;41113;41.882;12.530;2023-08-08T01:10:22;12.23;;;3.50;;
54947;SDS011;41113;41.882;12.530;2023-08-08T01:12:56;13.18;;;3.65;;
54947;SDS011;41113;41.882;12.530;2023-08-08T01:15:25;15.52;;;4.10;;
54947;SDS011;41113;41.882;12.530;2023-08-08T01:17:51;17.33;;;3.60;;
54947;SDS011;41113;41.882;12.530;2023-08-08T01:20:18;12.98;;;3.63;;
54947;SDS011;41113;41.882;12.530;2023-08-08T01:23:03;11.82;;;3.47;;
54947;SDS011;41113;41.882;12.530;2023-08-08T01:25:31;13.95;;;3.00;;
54947;SDS011;41113;41.882;12.530;2023-08-08T01:27:57;13.23;;;3.38;;
54947;SDS011;41113;41.882;12.530;2023-08-08T01:30:22;12.88;;;3.15;;
54947;SDS011;41113;41.882;12.530;2023-08-08T01:32:48;12.52;;;3.40;;
54947;SDS011;41113;41.882;12.530;2023-08-08T01:35:13;15.10;;;3.97;;
54947;SDS011;41113;41.882;12.530;2023-08-08T01:37:40;14.65;;;3.80;;
54947;SDS011;41113;41.882;12.530;2023-08-08T01:40:09;13.77;;;3.58;;
54947;SDS011;41113;41.882;12.530;2023-08-08T01:42:37;14.02;;;3.70;;
54947;SDS011;41113;41.882;12.530;2023-08-08T01:45:04;11.25;;;3.20;;
54947;SDS011;41113;41.882;12.530;2023-08-08T01:47:30;12.15;;;3.60;;
54947;SDS011;41113;41.882;12.530;2023-08-08T01:49:55;15.80;;;3.80;;
54947;SDS011;41113;41.882;12.530;2023-08-08T01:52:21;12.13;;;3.47;;
54947;SDS011;41113;41.882;12.530;2023-08-08T01:54:47;12.00;;;3.33;;
54947;SDS011;41113;41.882;12.530;2023-08-08T01:57:13;10.55;;;3.35;;
54947;SDS011;41113;41.882;12.530;2023-08-08T01:59:38;13.38;;;3.47;;
54947;SDS011;41113;41.882;12.530;2023-08-08T02:02:03;12.65;;;3.60;;
54947;SDS011;41113;41.882;12.530;2023-08-08T02:04:29;11.05;;;3.10;;
54947;SDS011;41113;41.882;12.530;2023-08-08T02:06:54;14.68;;;3.70;;
54947;SDS011;41113;41.882;12.530;2023-08-08T02:09:20;14.93;;;3.70;;
54947;SDS011;41113;41.882;12.530;2023-08-08T02:11:45;13.52;;;3.40;;
54947;SDS011;41113;41.882;12.530;2023-08-08T02:14:10;12.60;;;3.28;;
54947;SDS011;41113;41.882;12.530;2023-08-08T02:16:36;13.73;;;3.33;;
54947;SDS011;41113;41.882;12.530;2023-08-08T02:19:01;10.90;;;3.13;;
54947;SDS011;41113;41.882;12.530;2023-08-08T02:21:26;13.75;;;3.15;;
54947;SDS011;41113;41.882;12.530;2023-08-08T02:23:52;13.13;;;3.45;;
54947;SDS011;41113;41.882;12.530;2023-08-08T02:26:17;15.32;;;3.55;;
54947;SDS011;41113;41.882;12.530;2023-08-08T02:28:42;10.82;;;3.60;;
54947;SDS011;41113;41.882;12.530;2023-08-08T02:31:08;11.23;;;3.20;;
54947;SDS011;41113;41.882;12.530;2023-08-08T02:33:34;14.73;;;3.58;;
54947;SDS011;41113;41.882;12.530;2023-08-08T02:35:59;14.77;;;4.40;;
54947;SDS011;41113;41.882;12.530;2023-08-08T02:38:24;12.88;;;3.92;;
54947;SDS011;41113;41.882;12.530;2023-08-08T02:40:50;14.57;;;3.58;;
54947;SDS011;41113;41.882;12.530;2023-08-08T02:43:15;15.65;;;3.97;;
54947;SDS011;41113;41.882;12.530;2023-08-08T02:45:41;15.65;;;4.80;;
54947;SDS011;41113;41.882;12.530;2023-08-08T02:48:07;14.05;;;3.45;;
54947;SDS011;41113;41.882;12.530;2023-08-08T02:50:32;10.23;;;2.65;;
54947;SDS011;41113;41.882;12.530;2023-08-08T02:52:57;13.68;;;3.53;;
54947;SDS011;41113;41.882;12.530;2023-08-08T02:55:23;13.15;;;3.38;;
54947;SDS011;41113;41.882;12.530;2023-08-08T02:57:48;14.00;;;3.35;;
54947;SDS011;41113;41.882;12.530;2023-08-08T03:00:13;10.68;;;3.42;;
54947;SDS011;41113;41.882;12.530;2023-08-08T03:02:39;15.40;;;3.67;;
54947;SDS011;41113;41.882;12.530;2023-08-08T03:05:04;15.20;;;3.83;;
54947;SDS011;41113;41.882;12.530;2023-08-08T03:07:30;15.82;;;3.55;;
54947;SDS011;41113;41.882;12.530;2023-08-08T03:09:56;12.45;;;3.35;;
54947;SDS011;41113;41.882;12.530;2023-08-08T03:12:21;16.60;;;3.80;;
54947;SDS011;41113;41.882;12.530;2023-08-08T03:14:46;14.85;;;3.30;;
54947;SDS011;41113;41.882;12.530;2023-08-08T03:17:12;10.10;;;2.83;;
54947;SDS011;41113;41.882;12.530;2023-08-08T03:19:37;14.07;;;3.40;;
54947;SDS011;41113;41.882;12.530;2023-08-08T03:22:03;11.52;;;2.88;;
54947;SDS011;41113;41.882;12.530;2023-08-08T03:24:28;15.10;;;3.35;;
54947;SDS011;41113;41.882;12.530;2023-08-08T03:26:53;12.98;;;3.88;;
54947;SDS011;41113;41.882;12.530;2023-08-08T03:29:19;11.93;;;3.25;;
54947;SDS011;41113;41.882;12.530;2023-08-08T03:31:45;16.65;;;5.47;;
54947;SDS011;41113;41.882;12.530;2023-08-08T03:34:11;13.77;;;4.28;;
54947;SDS011;41113;41.882;12.530;2023-08-08T03:36:36;13.80;;;3.72;;
54947;SDS011;41113;41.882;12.530;2023-08-08T03:39:02;15.27;;;4.00;;
54947;SDS011;41113;41.882;12.530;2023-08-08T03:41:28;10.35;;;3.30;;
54947;SDS011;41113;41.882;12.530;2023-08-08T03:43:54;8.77;;;2.80;;
54947;SDS011;41113;41.882;12.530;2023-08-08T03:46:21;9.73;;;3.00;;
54947;SDS011;41113;41.882;12.530;2023-08-08T03:48:46;12.23;;;3.30;;
54947;SDS011;41113;41.882;12.530;2023-08-08T03:51:12;12.05;;;3.85;;
54947;SDS011;41113;41.882;12.530;2023-08-08T03:53:37;13.15;;;4.82;;
54947;SDS011;41113;41.882;12.530;2023-08-08T03:56:02;16.55;;;7.18;;
54947;SDS011;41113;41.882;12.530;2023-08-08T03:58:28;15.43;;;7.00;;
54947;SDS011;41113;41.882;12.530;2023-08-08T04:00:53;17.77;;;5.85;;
54947;SDS011;41113;41.882;12.530;2023-08-08T04:03:19;10.15;;;4.43;;
54947;SDS011;41113;41.882;12.530;2023-08-08T04:05:44;12.77;;;3.63;;
54947;SDS011;41113;41.882;12.530;2023-08-08T04:08:16;13.90;;;3.90;;
54947;SDS011;41113;41.882;12.530;2023-08-08T04:10:42;13.35;;;3.53;;
54947;SDS011;41113;41.882;12.530;2023-08-08T04:13:09;10.52;;;3.60;;
54947;SDS011;41113;41.882;12.530;2023-08-08T04:15:34;13.40;;;2.83;;
54947;SDS011;41113;41.882;12.530;2023-08-08T04:18:00;11.00;;;3.15;;
54947;SDS011;41113;41.882;12.530;2023-08-08T04:20:25;7.78;;;2.55;;
54947;SDS011;41113;41.882;12.530;2023-08-08T04:22:51;10.88;;;2.85;;
54947;SDS011;41113;41.882;12.530;2023-08-08T04:25:16;11.85;;;2.92;;
54947;SDS011;41113;41.882;12.530;2023-08-08T04:27:41;10.73;;;2.83;;
54947;SDS011;41113;41.882;12.530;2023-08-08T04:30:07;11.38;;;2.90;;
54947;SDS011;41113;41.882;12.530;2023-08-08T04:32:33;12.38;;;3.05;;
54947;SDS011;41113;41.882;12.530;2023-08-08T04:34:58;10.95;;;2.53;;
54947;SDS011;41113;41.882;12.530;2023-08-08T04:37:23;10.73;;;2.63;;
54947;SDS011;41113;41.882;12.530;2023-08-08T04:39:49;12.93;;;2.65;;
54947;SDS011;41113;41.882;12.530;2023-08-08T04:42:14;11.02;;;3.00;;
54947;SDS011;41113;41.882;12.530;2023-08-08T04:44:39;14.07;;;3.47;;
54947;SDS011;41113;41.882;12.530;2023-08-08T04:47:05;9.55;;;2.50;;
54947;SDS011;41113;41.882;12.530;2023-08-08T04:49:30;9.95;;;2.80;;
54947;SDS011;41113;41.882;12.530;2023-08-08T04:51:55;10.73;;;2.72;;
54947;SDS011;41113;41.882;12.530;2023-08-08T04:54:21;11.48;;;3.30;;
54947;SDS011;41113;41.882;12.530;2023-08-08T04:56:46;11.32;;;2.60;;
54947;SDS011;41113;41.882;12.530;2023-08-08T04:59:12;10.73;;;2.60;;
54947;SDS011;41113;41.882;12.530;2023-08-08T05:01:37;9.02;;;2.30;;
54947;SDS011;41113;41.882;12.530;2023-08-08T05:04:02;11.90;;;2.60;;
54947;SDS011;41113;41.882;12.530;2023-08-08T05:06:28;13.40;;;2.65;;
54947;SDS011;41113;41.882;12.530;2023-08-08T05:08:53;10.07;;;2.35;;
54947;SDS011;41113;41.882;12.530;2023-08-08T05:11:19;8.18;;;2.40;;
54947;SDS011;41113;41.882;12.530;2023-08-08T05:13:44;10.75;;;2.63;;
54947;SDS011;41113;41.882;12.530;2023-08-08T05:16:09;9.32;;;2.80;;
54947;SDS011;41113;41.882;12.530;2023-08-08T05:18:37;11.57;;;2.67;;
54947;SDS011;41113;41.882;12.530;2023-08-08T05:21:03;9.57;;;2.78;;
54947;SDS011;41113;41.882;12.530;2023-08-08T05:23:28;7.97;;;2.22;;
54947;SDS011;41113;41.882;12.530;2023-08-08T05:25:53;10.15;;;2.65;;
54947;SDS011;41113;41.882;12.530;2023-08-08T05:28:19;9.23;;;2.40;;
54947;SDS011;41113;41.882;12.530;2023-08-08T05:30:45;11.60;;;2.75;;
54947;SDS011;41113;41.882;12.530;2023-08-08T05:33:11;9.27;;;2.53;;
54947;SDS011;41113;41.882;12.530;2023-08-08T05:35:36;6.88;;;1.90;;
54947;SDS011;41113;41.882;12.530;2023-08-08T05:38:01;8.57;;;2.45;;
54947;SDS011;41113;41.882;12.530;2023-08-08T05:40:27;8.23;;;2.45;;
54947;SDS011;41113;41.882;12.530;2023-08-08T05:42:52;13.05;;;2.20;;
54947;SDS011;41113;41.882;12.530;2023-08-08T05:45:18;8.05;;;2.40;;
54947;SDS011;41113;41.882;12.530;2023-08-08T05:47:43;11.25;;;2.40;;
54947;SDS011;41113;41.882;12.530;2023-08-08T05:50:08;8.98;;;2.22;;
54947;SDS011;41113;41.882;12.530;2023-08-08T05:52:34;8.82;;;2.45;;
54947;SDS011;41113;41.882;12.530;2023-08-08T05:54:59;7.40;;;2.30;;
54947;SDS011;41113;41.882;12.530;2023-08-08T05:57:25;8.45;;;2.60;;
54947;SDS011;41113;41.882;12.530;2023-08-08T05:59:51;9.07;;;2.20;;
54947;SDS011;41113;41.882;12.530;2023-08-08T06:02:17;9.80;;;2.70;;
54947;SDS011;41113;41.882;12.530;2023-08-08T06:04:42;9.05;;;2.15;;
54947;SDS011;41113;41.882;12.530;2023-08-08T06:07:08;11.05;;;2.30;;
54947;SDS011;41113;41.882;12.530;2023-08-08T06:09:33;8.23;;;2.55;;
54947;SDS011;41113;41.882;12.530;2023-08-08T06:11:59;10.02;;;3.50;;
54947;SDS011;41113;41.882;12.530;2023-08-08T06:14:24;10.90;;;2.67;;
54947;SDS011;41113;41.882;12.530;2023-08-08T06:16:50;8.95;;;2.80;;
54947;SDS011;41113;41.882;12.530;2023-08-08T06:19:15;7.88;;;2.30;;
54947;SDS011;41113;41.882;12.530;2023-08-08T06:21:41;8.68;;;2.28;;
54947;SDS011;41113;41.882;12.530;2023-08-08T06:24:06;7.68;;;2.67;;
54947;SDS011;41113;41.882;12.530;2023-08-08T06:26:32;9.93;;;2.35;;
54947;SDS011;41113;41.882;12.530;2023-08-08T06:28:57;7.82;;;2.30;;
54947;SDS011;41113;41.882;12.530;2023-08-08T06:31:22;8.90;;;2.60;;
54947;SDS011;41113;41.882;12.530;2023-08-08T06:33:48;8.20;;;2.42;;
54947;SDS011;41113;41.882;12.530;2023-08-08T06:36:13;8.38;;;2.65;;
54947;SDS011;41113;41.882;12.530;2023-08-08T06:38:39;9.43;;;2.30;;
54947;SDS011;41113;41.882;12.530;2023-08-08T06:41:04;7.70;;;2.35;;
54947;SDS011;41113;41.882;12.530;2023-08-08T06:43:30;11.52;;;3.03;;
54947;SDS011;41113;41.882;12.530;2023-08-08T06:45:56;10.32;;;2.90;;
54947;SDS011;41113;41.882;12.530;2023-08-08T06:48:21;9.82;;;2.92;;
54947;SDS011;41113;41.882;12.530;2023-08-08T06:50:47;10.15;;;2.90;;
54947;SDS011;41113;41.882;12.530;2023-08-08T06:53:13;12.63;;;3.35;;
54947;SDS011;41113;41.882;12.530;2023-08-08T06:55:38;10.38;;;3.15;;
54947;SDS011;41113;41.882;12.530;2023-08-08T06:58:03;13.18;;;3.63;;
54947;SDS011;41113;41.882;12.530;2023-08-08T07:00:29;15.50;;;3.53;;
54947;SDS011;41113;41.882;12.530;2023-08-08T07:02:55;11.20;;;3.15;;
54947;SDS011;41113;41.882;12.530;2023-08-08T07:05:20;10.93;;;3.70;;
54947;SDS011;41113;41.882;12.530;2023-08-08T07:07:50;12.23;;;3.42;;
54947;SDS011;41113;41.882;12.530;2023-08-08T07:10:15;11.52;;;3.10;;
54947;SDS011;41113;41.882;12.530;2023-08-08T07:12:41;13.20;;;3.53;;
54947;SDS011;41113;41.882;12.530;2023-08-08T07:15:06;12.07;;;4.07;;
54947;SDS011;41113;41.882;12.530;2023-08-08T07:17:32;14.40;;;4.05;;
54947;SDS011;41113;41.882;12.530;2023-08-08T07:19:57;11.10;;;3.90;;
54947;SDS011;41113;41.882;12.530;2023-08-08T07:22:23;13.52;;;3.70;;
54947;SDS011;41113;41.882;12.530;2023-08-08T07:24:48;12.80;;;3.08;;
54947;SDS011;41113;41.882;12.530;2023-08-08T07:27:14;10.95;;;3.45;;
54947;SDS011;41113;41.882;12.530;2023-08-08T07:29:39;10.13;;;3.30;;
54947;SDS011;41113;41.882;12.530;2023-08-08T07:32:05;10.20;;;2.97;;
54947;SDS011;41113;41.882;12.530;2023-08-08T07:34:31;10.23;;;3.25;;
54947;SDS011;41113;41.882;12.530;2023-08-08T07:36:57;12.02;;;3.03;;
54947;SDS011;41113;41.882;12.530;2023-08-08T07:39:23;10.23;;;2.50;;
54947;SDS011;41113;41.882;12.530;2023-08-08T07:41:48;8.40;;;2.65;;
54947;SDS011;41113;41.882;12.530;2023-08-08T07:44:13;8.38;;;2.40;;
54947;SDS011;41113;41.882;12.530;2023-08-08T07:46:39;9.43;;;2.50;;
54947;SDS011;41113;41.882;12.530;2023-08-08T07:49:04;10.45;;;2.60;;
54947;SDS011;41113;41.882;12.530;2023-08-08T07:51:31;10.05;;;2.80;;
54947;SDS011;41113;41.882;12.530;2023-08-08T07:53:58;9.25;;;2.65;;
54947;SDS011;41113;41.882;12.530;2023-08-08T07:56:24;9.73;;;2.45;;
54947;SDS011;41113;41.882;12.530;2023-08-08T07:58:49;10.77;;;2.60;;
54947;SDS011;41113;41.882;12.530;2023-08-08T08:01:15;10.10;;;2.95;;
54947;SDS011;41113;41.882;12.530;2023-08-08T08:03:40;9.98;;;3.00;;
54947;SDS011;41113;41.882;12.530;2023-08-08T08:06:06;10.25;;;2.67;;
54947;SDS011;41113;41.882;12.530;2023-08-08T08:08:31;9.98;;;2.53;;
54947;SDS011;41113;41.882;12.530;2023-08-08T08:10:57;10.52;;;2.80;;
54947;SDS011;41113;41.882;12.530;2023-08-08T08:13:23;10.05;;;2.60;;
54947;SDS011;41113;41.882;12.530;2023-08-08T08:15:48;11.00;;;2.72;;
54947;SDS011;41113;41.882;12.530;2023-08-08T08:18:13;8.77;;;2.55;;
54947;SDS011;41113;41.882;12.530;2023-08-08T08:20:41;7.97;;;2.33;;
54947;SDS011;41113;41.882;12.530;2023-08-08T08:23:07;11.63;;;2.60;;
54947;SDS011;41113;41.882;12.530;2023-08-08T08:25:33;9.48;;;2.67;;
54947;SDS011;41113;41.882;12.530;2023-08-08T08:27:58;11.63;;;3.40;;
54947;SDS011;41113;41.882;12.530;2023-08-08T08:30:23;12.73;;;2.90;;
54947;SDS011;41113;41.882;12.530;2023-08-08T08:32:51;11.30;;;3.05;;
54947;SDS011;41113;41.882;12.530;2023-08-08T08:35:16;11.30;;;3.25;;
54947;SDS011;41113;41.882;12.530;2023-08-08T08:37:42;12.55;;;3.63;;
54947;SDS011;41113;41.882;12.530;2023-08-08T08:40:07;8.38;;;2.90;;
54947;SDS011;41113;41.882;12.530;2023-08-08T08:42:34;8.70;;;2.70;;
54947;SDS011;41113;41.882;12.530;2023-08-08T08:45:01;8.77;;;2.58;;
54947;SDS011;41113;41.882;12.530;2023-08-08T08:47:29;11.02;;;3.00;;
54947;SDS011;41113;41.882;12.530;2023-08-08T08:49:56;10.35;;;2.63;;
54947;SDS011;41113;41.882;12.530;2023-08-08T08:52:22;9.40;;;2.60;;
54947;SDS011;41113;41.882;12.530;2023-08-08T08:54:50;10.70;;;2.72;;
54947;SDS011;41113;41.882;12.530;2023-08-08T08:57:15;10.98;;;3.03;;
54947;SDS011;41113;41.882;12.530;2023-08-08T08:59:41;12.00;;;3.35;;
54947;SDS011;41113;41.882;12.530;2023-08-08T09:02:06;10.35;;;3.10;;
54947;SDS011;41113;41.882;12.530;2023-08-08T09:04:33;9.75;;;2.42;;
54947;SDS011;41113;41.882;12.530;2023-08-08T09:06:59;9.65;;;2.72;;
54947;SDS011;41113;41.882;12.530;2023-08-08T09:09:26;9.45;;;2.70;;
54947;SDS011;41113;41.882;12.530;2023-08-08T09:11:52;9.27;;;2.45;;
54947;SDS011;41113;41.882;12.530;2023-08-08T09:14:25;8.93;;;2.90;;
54947;SDS011;41113;41.882;12.530;2023-08-08T09:16:52;11.60;;;2.90;;
54947;SDS011;41113;41.882;12.530;2023-08-08T09:19:19;11.70;;;3.17;;
54947;SDS011;41113;41.882;12.530;2023-08-08T09:21:46;9.90;;;3.00;;
54947;SDS011;41113;41.882;12.530;2023-08-08T09:24:12;9.93;;;2.67;;
54947;SDS011;41113;41.882;12.530;2023-08-08T09:26:39;12.80;;;3.08;;
54947;SDS011;41113;41.882;12.530;2023-08-08T09:29:05;9.73;;;2.83;;
54947;SDS011;41113;41.882;12.530;2023-08-08T09:31:31;11.32;;;3.08;;
54947;SDS011;41113;41.882;12.530;2023-08-08T09:34:00;8.68;;;2.78;;
54947;SDS011;41113;41.882;12.530;2023-08-08T09:36:28;11.07;;;2.70;;
54947;SDS011;41113;41.882;12.530;2023-08-08T09:38:53;8.50;;;2.45;;
54947;SDS011;41113;41.882;12.530;2023-08-08T09:41:20;9.25;;;2.60;;
54947;SDS011;41113;41.882;12.530;2023-08-08T09:43:50;9.32;;;3.03;;
54947;SDS011;41113;41.882;12.530;2023-08-08T09:46:18;10.93;;;2.97;;
54947;SDS011;41113;41.882;12.530;2023-08-08T09:48:44;11.13;;;2.83;;
54947;SDS011;41113;41.882;12.530;2023-08-08T09:51:10;8.88;;;2.17;;
54947;SDS011;41113;41.882;12.530;2023-08-08T09:53:35;9.27;;;2.40;;
54947;SDS011;41113;41.882;12.530;2023-08-08T09:56:01;8.55;;;2.60;;
54947;SDS011;41113;41.882;12.530;2023-08-08T09:58:29;8.05;;;1.98;;
54947;SDS011;41113;41.882;12.530;2023-08-08T10:00:54;8.35;;;2.38;;
54947;SDS011;41113;41.882;12.530;2023-08-08T10:03:20;8.88;;;2.50;;
54947;SDS011;41113;41.882;12.530;2023-08-08T10:05:46;8.23;;;2.30;;
54947;SDS011;41113;41.882;12.530;2023-08-08T10:08:14;11.07;;;2.28;;
54947;SDS011;41113;41.882;12.530;2023-08-08T10:10:40;8.30;;;2.40;;
54947;SDS011;41113;41.882;12.530;2023-08-08T10:13:08;14.07;;;5.97;;
54947;SDS011;41113;41.882;12.530;2023-08-08T10:15:36;13.68;;;4.57;;
54947;SDS011;41113;41.882;12.530;2023-08-08T10:18:02;10.73;;;4.22;;
54947;SDS011;41113;41.882;12.530;2023-08-08T10:20:28;10.98;;;4.03;;
54947;SDS011;41113;41.882;12.530;2023-08-08T10:22:57;9.57;;;3.13;;
54947;SDS011;41113;41.882;12.530;2023-08-08T10:25:24;9.40;;;3.00;;
54947;SDS011;41113;41.882;12.530;2023-08-08T10:30:27;9.95;;;3.05;;
54947;SDS011;41113;41.882;12.530;2023-08-08T10:32:52;8.70;;;2.88;;
54947;SDS011;41113;41.882;12.530;2023-08-08T10:35:22;11.15;;;2.83;;
54947;SDS011;41113;41.882;12.530;2023-08-08T10:37:53;10.05;;;3.00;;
54947;SDS011;41113;41.882;12.530;2023-08-08T10:40:19;7.93;;;2.47;;
54947;SDS011;41113;41.882;12.530;2023-08-08T10:42:45;8.80;;;2.40;;
54947;SDS011;41113;41.882;12.530;2023-08-08T10:45:13;7.68;;;2.35;;
54947;SDS011;41113;41.882;12.530;2023-08-08T10:47:40;8.43;;;2.22;;
54947;SDS011;41113;41.882;12.530;2023-08-08T10:50:07;8.25;;;2.30;;
54947;SDS011;41113;41.882;12.530;2023-08-08T10:52:38;8.40;;;2.70;;
54947;SDS011;41113;41.882;12.530;2023-08-08T11:00:28;9.20;;;2.33;;
54947;SDS011;41113;41.882;12.530;2023-08-08T11:02:56;8.57;;;2.20;;
54947;SDS011;41113;41.882;12.530;2023-08-08T11:05:23;8.00;;;2.42;;
54947;SDS011;41113;41.882;12.530;2023-08-08T11:07:49;8.52;;;2.35;;
54947;SDS011;41113;41.882;12.530;2023-08-08T11:10:15;8.88;;;2.35;;
54947;SDS011;41113;41.882;12.530;2023-08-08T11:12:40;8.38;;;2.70;;
54947;SDS011;41113;41.882;12.530;2023-08-08T11:15:06;6.95;;;2.13;;
54947;SDS011;41113;41.882;12.530;2023-08-08T11:17:31;6.20;;;2.15;;
54947;SDS011;41113;41.882;12.530;2023-08-08T11:19:57;6.32;;;1.75;;
54947;SDS011;41113;41.882;12.530;2023-08-08T11:22:23;8.45;;;2.40;;
54947;SDS011;41113;41.882;12.530;2023-08-08T11:24:48;8.98;;;2.97;;
54947;SDS011;41113;41.882;12.530;2023-08-08T11:27:15;8.65;;;2.55;;
54947;SDS011;41113;41.882;12.530;2023-08-08T11:29:40;9.40;;;2.95;;
54947;SDS011;41113;41.882;12.530;2023-08-08T11:32:13;9.00;;;2.92;;
54947;SDS011;41113;41.882;12.530;2023-08-08T11:34:39;10.07;;;2.97;;
54947;SDS011;41113;41.882;12.530;2023-08-08T11:37:04;9.93;;;2.90;;
54947;SDS011;41113;41.882;12.530;2023-08-08T11:39:29;8.52;;;2.78;;
54947;SDS011;41113;41.882;12.530;2023-08-08T11:41:55;11.23;;;2.92;;
54947;SDS011;41113;41.882;12.530;2023-08-08T11:44:21;9.98;;;3.10;;
54947;SDS011;41113;41.882;12.530;2023-08-08T11:46:46;9.00;;;2.70;;
54947;SDS011;41113;41.882;12.530;2023-08-08T11:49:13;10.35;;;2.80;;
54947;SDS011;41113;41.882;12.530;2023-08-08T11:51:40;8.52;;;2.47;;
54947;SDS011;41113;41.882;12.530;2023-08-08T11:54:08;7.95;;;2.22;;
54947;SDS011;41113;41.882;12.530;2023-08-08T11:56:33;11.30;;;2.50;;
54947;SDS011;41113;41.882;12.530;2023-08-08T11:58:59;9.63;;;2.42;;
54947;SDS011;41113;41.882;12.530;2023-08-08T12:01:26;10.70;;;2.53;;
54947;SDS011;41113;41.882;12.530;2023-08-08T12:03:52;12.38;;;2.78;;
54947;SDS011;41113;41.882;12.530;2023-08-08T12:06:19;8.90;;;2.40;;
54947;SDS011;41113;41.882;12.530;2023-08-08T12:08:45;7.80;;;2.25;;
54947;SDS011;41113;41.882;12.530;2023-08-08T12:11:12;8.35;;;2.05;;
54947;SDS011;41113;41.882;12.530;2023-08-08T12:13:38;10.45;;;2.50;;
54947;SDS011;41113;41.882;12.530;2023-08-08T12:16:05;8.07;;;2.10;;
54947;SDS011;41113;41.882;12.530;2023-08-08T12:18:31;6.57;;;2.10;;
54947;SDS011;41113;41.882;12.530;2023-08-08T12:20:57;9.65;;;2.30;;
54947;SDS011;41113;41.882;12.530;2023-08-08T12:23:22;8.95;;;2.38;;
54947;SDS011;41113;41.882;12.530;2023-08-08T12:25:48;9.52;;;2.83;;
54947;SDS011;41113;41.882;12.530;2023-08-08T12:28:13;10.15;;;2.40;;
54947;SDS011;41113;41.882;12.530;2023-08-08T12:30:39;10.10;;;2.38;;
54947;SDS011;41113;41.882;12.530;2023-08-08T12:33:04;12.18;;;2.45;;
54947;SDS011;41113;41.882;12.530;2023-08-08T12:35:29;8.77;;;2.28;;
54947;SDS011;41113;41.882;12.530;2023-08-08T12:37:55;9.25;;;2.42;;
54947;SDS011;41113;41.882;12.530;2023-08-08T12:40:20;8.05;;;2.17;;
54947;SDS011;41113;41.882;12.530;2023-08-08T12:42:45;8.73;;;2.30;;
54947;SDS011;41113;41.882;12.530;2023-08-08T12:45:12;9.93;;;2.25;;
54947;SDS011;41113;41.882;12.530;2023-08-08T12:47:38;8.57;;;2.28;;
54947;SDS011;41113;41.882;12.530;2023-08-08T12:50:04;9.52;;;2.38;;
54947;SDS011;41113;41.882;12.530;2023-08-08T12:52:30;8.60;;;2.78;;
54947;SDS011;41113;41.882;12.530;2023-08-08T12:54:55;10.80;;;2.35;;
54947;SDS011;41113;41.882;12.530;2023-08-08T12:57:20;8.05;;;2.28;;
54947;SDS011;41113;41.882;12.530;2023-08-08T12:59:46;6.80;;;2.00;;
54947;SDS011;41113;41.882;12.530;2023-08-08T13:02:11;9.70;;;2.10;;
54947;SDS011;41113;41.882;12.530;2023-08-08T13:04:37;8.00;;;2.22;;
54947;SDS011;41113;41.882;12.530;2023-08-08T13:07:02;7.25;;;1.90;;
54947;SDS011;41113;41.882;12.530;2023-08-08T13:09:29;7.68;;;2.13;;
54947;SDS011;41113;41.882;12.530;2023-08-08T13:11:54;9.02;;;2.17;;
54947;SDS011;41113;41.882;12.530;2023-08-08T13:14:19;7.68;;;2.10;;
54947;SDS011;41113;41.882;12.530;2023-08-08T13:16:45;9.43;;;2.17;;
54947;SDS011;41113;41.882;12.530;2023-08-08T13:19:11;8.82;;;1.85;;
54947;SDS011;41113;41.882;12.530;2023-08-08T13:21:36;8.55;;;2.17;;
54947;SDS011;41113;41.882;12.530;2023-08-08T13:24:01;8.50;;;1.92;;
54947;SDS011;41113;41.882;12.530;2023-08-08T13:26:27;9.07;;;1.90;;
54947;SDS011;41113;41.882;12.530;2023-08-08T13:28:52;10.43;;;2.20;;
54947;SDS011;41113;41.882;12.530;2023-08-08T13:31:18;6.63;;;1.90;;
54947;SDS011;41113;41.882;12.530;2023-08-08T13:33:43;7.35;;;1.95;;
54947;SDS011;41113;41.882;12.530;2023-08-08T13:36:09;7.38;;;2.08;;
54947;SDS011;41113;41.882;12.530;2023-08-08T13:38:34;6.80;;;1.70;;
54947;SDS011;41113;41.882;12.530;2023-08-08T13:41:00;8.85;;;2.33;;
54947;SDS011;41113;41.882;12.530;2023-08-08T13:43:26;7.90;;;2.08;;
54947;SDS011;41113;41.882;12.530;2023-08-08T13:45:51;7.82;;;1.90;;
54947;SDS011;41113;41.882;12.530;2023-08-08T13:48:17;8.43;;;1.77;;
54947;SDS011;41113;41.882;12.530;2023-08-08T13:50:42;6.60;;;1.80;;
54947;SDS011;41113;41.882;12.530;2023-08-08T13:53:08;6.97;;;1.98;;
54947;SDS011;41113;41.882;12.530;2023-08-08T13:55:33;6.18;;;1.83;;
54947;SDS011;41113;41.882;12.530;2023-08-08T13:58:04;6.80;;;1.92;;
54947;SDS011;41113;41.882;12.530;2023-08-08T14:00:30;7.47;;;1.90;;
54947;SDS011;41113;41.882;12.530;2023-08-08T14:02:56;6.97;;;1.90;;
54947;SDS011;41113;41.882;12.530;2023-08-08T14:05:22;6.75;;;2.17;;
54947;SDS011;41113;41.882;12.530;2023-08-08T14:07:47;6.35;;;1.60;;
54947;SDS011;41113;41.882;12.530;2023-08-08T14:10:13;5.97;;;1.80;;
54947;SDS011;41113;41.882;12.530;2023-08-08T14:12:38;7.55;;;2.00;;
54947;SDS011;41113;41.882;12.530;2023-08-08T14:15:03;6.97;;;1.80;;
54947;SDS011;41113;41.882;12.530;2023-08-08T14:17:29;7.07;;;1.92;;
54947;SDS011;41113;41.882;12.530;2023-08-08T14:19:55;5.93;;;1.70;;
54947;SDS011;41113;41.882;12.530;2023-08-08T14:22:20;7.72;;;1.95;;
54947;SDS011;41113;41.882;12.530;2023-08-08T14:24:45;6.20;;;1.70;;
54947;SDS011;41113;41.882;12.530;2023-08-08T14:27:11;8.25;;;1.90;;
54947;SDS011;41113;41.882;12.530;2023-08-08T14:29:36;5.15;;;1.50;;
54947;SDS011;41113;41.882;12.530;2023-08-08T14:32:01;7.50;;;2.08;;